Time;durP1;ratioP1;P1;durP2;ratioP2;P2;SDS_P1;SDS_P2;PMS_P1;PMS_P2;Temp;Humidity;BMP_temperature;BMP_pressure;BME280_temperature;BME280_humidity;BME280_pressure;Samples;Min_cycle;Max_cycle;Signal;HPM_P1;HPM_P2
2021/04/15 00:00:41;;;;;;;1.77;0.50;;;6.00;99.90;;;5.39;68.49;101341.84;5045783;28;20552;-43
2021/04/15 00:03:11;;;;;;;1.63;0.50;;;6.00;99.90;;;5.37;68.55;101337.69;5043459;28;20036;-44
2021/04/15 00:05:38;;;;;;;2.85;0.60;;;6.00;99.90;;;5.31;68.24;101331.94;5046977;28;20400;-44
2021/04/15 00:08:07;;;;;;;3.10;0.80;;;5.90;99.90;;;5.28;69.16;101336.47;5042099;28;20145;-44
2021/04/15 00:10:43;;;;;;;2.42;0.73;;;5.90;99.90;;;5.17;69.37;101329.34;5047002;28;20459;-46
2021/04/15 00:13:32;;;;;;;;;;;5.80;99.90;;;5.07;70.97;101335.13;5043822;28;20072;-47
2021/04/15 00:15:59;;;;;;;4.05;0.70;;;5.70;99.90;;;5.05;69.36;101326.66;5050369;28;19917;-43
2021/04/15 00:18:26;;;;;;;1.35;0.60;;;5.70;99.90;;;5.06;69.18;101336.88;5048079;28;20067;-45
2021/04/15 00:20:53;;;;;;;7.50;0.70;;;5.60;99.90;;;4.97;69.95;101327.06;5049638;28;20466;-43
2021/04/15 00:23:20;;;;;;;2.38;0.60;;;5.60;99.90;;;4.85;71.02;101323.44;5048454;28;20135;-44
2021/04/15 00:25:46;;;;;;;2.47;1.00;;;5.50;99.90;;;4.82;70.69;101326.19;5045915;28;20025;-46
2021/04/15 00:28:13;;;;;;;1.52;0.57;;;5.40;99.90;;;4.83;72.70;101321.84;5035113;28;20165;-43
2021/04/15 00:30:40;;;;;;;3.22;0.80;;;5.40;99.90;;;4.83;70.78;101320.09;5050304;28;20413;-45
2021/04/15 00:33:07;;;;;;;2.45;0.70;;;5.50;99.90;;;4.84;70.86;101315.78;5049207;28;20508;-48
2021/04/15 00:35:34;;;;;;;1.20;0.50;;;5.40;99.90;;;4.84;70.29;101314.03;5049865;28;20393;-43
2021/04/15 00:38:01;;;;;;;2.20;0.77;;;5.40;99.90;;;4.82;70.40;101313.28;5047180;28;20294;-47
2021/04/15 00:40:29;;;;;;;1.83;0.75;;;5.40;99.90;;;4.78;71.26;101313.53;5029916;28;20044;-44
2021/04/15 00:42:55;;;;;;;4.13;0.73;;;5.40;99.90;;;4.70;71.94;101314.00;5036970;28;20156;-48
2021/04/15 00:45:32;;;;;;;6.47;1.55;;;5.30;99.90;;;4.66;72.73;101312.50;5030330;28;20029;-46
2021/04/15 00:48:09;;;;;;;8.80;1.25;;;5.30;99.90;;;4.68;72.87;101308.09;5030068;28;20042;-44
2021/04/15 00:50:46;;;;;;;2.38;0.90;;;5.30;99.90;;;4.63;72.89;101308.34;5031880;28;20098;-43
2021/04/15 00:53:21;;;;;;;2.50;0.98;;;5.20;99.90;;;4.63;72.67;101308.34;5046829;28;20491;-47
2021/04/15 00:55:48;;;;;;;2.70;1.10;;;5.20;99.90;;;4.65;72.70;101306.50;5042208;28;20042;-45
2021/04/15 00:58:15;;;;;;;1.95;0.60;;;5.20;99.90;;;4.74;71.92;101310.28;5030208;28;20083;-45
2021/04/15 01:00:43;;;;;;;2.42;1.00;;;5.30;99.90;;;4.79;71.56;101313.44;5028410;28;20103;-43
2021/04/15 01:03:09;;;;;;;1.67;0.70;;;5.30;99.90;;;4.77;71.63;101312.72;5029310;28;20038;-48
2021/04/15 01:05:41;;;;;;;1.88;0.93;;;5.40;99.90;;;4.79;71.51;101308.28;5028606;28;20548;-45
2021/04/15 01:08:08;;;;;;;2.88;0.80;;;5.30;99.90;;;4.87;70.77;101308.69;5037595;28;20037;-42
2021/04/15 01:10:45;;;;;;;3.10;0.80;;;5.40;99.90;;;4.85;71.51;101304.53;5029801;28;20120;-45
2021/04/15 01:13:45;;;;;;;2.28;0.80;;;5.40;99.90;;;4.78;72.01;101306.63;5028257;28;20037;-44
2021/04/15 01:16:34;;;;;;;2.20;1.02;;;5.40;99.90;;;4.72;72.49;101296.69;5027867;28;20489;-43
2021/04/15 01:19:37;;;;;;;3.72;0.93;;;5.30;99.90;;;4.71;72.74;101301.94;5040380;28;20044;-48
2021/04/15 01:22:33;;;;;;;1.20;0.60;;;5.30;99.90;;;4.59;73.87;101300.84;5041629;28;20409;-45
2021/04/15 01:25:19;;;;;;;1.52;0.90;;;5.30;99.90;;;4.53;74.03;101306.34;5047472;28;20047;-42
2021/04/15 01:27:50;;;;;;;2.25;0.80;;;5.20;99.90;;;4.49;74.10;101310.03;5048006;28;20045;-50
2021/04/15 01:30:38;;;;;;;2.33;0.60;;;5.10;99.90;;;4.51;75.32;101301.28;5046165;28;20447;-45
2021/04/15 01:33:39;;;;;;;4.50;1.00;;;5.10;99.90;;;4.49;75.06;101299.69;5046487;28;20029;-46
2021/04/15 01:36:18;;;;;;;3.72;0.88;;;5.10;99.90;;;4.36;74.38;101299.53;5027814;28;20054;-45
2021/04/15 01:38:54;;;;;;;4.55;1.00;;;5.00;99.90;;;4.35;74.34;101300.44;5039753;28;20357;-48
2021/04/15 01:41:35;;;;;;;4.10;0.98;;;5.00;99.90;;;4.38;74.67;101297.72;5027896;28;20087;-45
2021/04/15 01:44:29;;;;;;;4.35;0.75;;;5.00;99.90;;;4.38;74.75;101299.47;5041113;28;20051;-50
2021/04/15 01:47:02;;;;;;;4.53;1.17;;;5.00;99.90;;;4.41;74.82;101312.19;5047636;28;20041;-45
2021/04/15 01:49:35;;;;;;;3.38;0.70;;;5.00;99.90;;;4.36;74.93;101311.59;5059173;28;20029;-48
2021/04/15 01:52:01;;;;;;;2.03;0.70;;;5.00;99.90;;;4.26;75.39;101314.69;5040555;28;20033;-47
2021/04/15 01:54:39;;;;;;;2.67;0.70;;;4.90;99.90;;;4.28;75.26;101312.84;5046364;28;20029;-47
2021/04/15 01:57:44;;;;;;;5.90;1.30;;;4.90;99.90;;;4.25;75.78;101313.03;5047015;28;20497;-44
2021/04/15 02:00:23;;;;;;;3.97;0.68;;;4.90;99.90;;;4.18;75.54;101310.88;5044935;28;20508;-44
2021/04/15 02:02:58;;;;;;;2.50;0.90;;;4.80;99.90;;;4.18;75.96;101306.56;5047226;28;20079;-47
2021/04/15 02:05:34;;;;;;;2.10;0.75;;;4.80;99.90;;;4.13;76.16;101303.41;5046113;28;20410;-43
2021/04/15 02:08:08;;;;;;;;;;;4.70;99.90;;;4.04;77.62;101303.88;5047723;28;20448;-42
2021/04/15 02:10:40;;;;;;;4.40;0.88;;;4.70;99.90;;;3.98;76.50;101305.03;5047318;28;19928;-46
2021/04/15 02:13:09;;;;;;;2.65;0.80;;;4.60;99.90;;;3.97;76.24;101310.28;5046503;28;20044;-42
2021/04/15 02:15:51;;;;;;;2.72;0.93;;;4.60;99.90;;;3.95;77.44;101312.09;5046089;28;20060;-44
2021/04/15 02:18:54;;;;;;;3.13;0.65;;;4.50;99.90;;;3.85;78.30;101305.75;5045933;28;20445;-45
2021/04/15 02:22:07;;;;;;;1.63;0.82;;;4.50;99.90;;;3.86;77.73;101310.84;5047977;28;20048;-46
2021/04/15 02:24:45;;;;;;;3.08;1.33;;;4.40;99.90;;;3.86;76.85;101305.69;5045691;28;20091;-42
2021/04/15 02:27:30;;;;;;;2.90;0.80;;;4.40;99.90;;;3.95;76.75;101304.38;5047427;28;20060;-44
2021/04/15 02:30:06;;;;;;;2.95;0.85;;;4.50;99.90;;;3.90;76.55;101308.94;5045617;28;20119;-45
2021/04/15 02:32:40;;;;;;;2.17;0.82;;;4.50;99.90;;;3.80;76.59;101306.00;5046041;28;20041;-46
2021/04/15 02:35:37;;;;;;;4.60;0.95;;;4.40;99.90;;;3.71;77.04;101301.34;5046707;28;20029;-43
2021/04/15 02:38:04;;;;;;;2.55;0.80;;;4.40;99.90;;;3.66;76.58;101299.03;5045711;28;20123;-48
2021/04/15 02:40:52;;;;;;;3.60;1.17;;;4.30;99.90;;;3.60;77.42;101298.50;5045727;28;20041;-43
2021/04/15 02:43:43;;;;;;;1.40;0.50;;;4.20;99.90;;;3.52;77.93;101301.47;5046356;28;20193;-50
2021/04/15 02:46:22;;;;;;;2.17;1.13;;;4.20;99.90;;;3.46;78.34;101306.09;5028920;28;20036;-42
2021/04/15 02:48:51;;;;;;;2.97;0.90;;;4.10;99.90;;;3.50;77.59;101303.28;5029666;28;20030;-46
2021/04/15 02:51:29;;;;;;;2.28;0.80;;;4.10;99.90;;;3.46;78.44;101300.94;5047596;28;20318;-43
2021/04/15 02:56:59;;;;;;;5.85;0.50;;;4.00;99.90;;;3.57;76.08;101308.97;5224105;22;20090;-46
2021/04/15 02:59:38;;;;;;;2.15;0.60;;;4.10;99.90;;;3.61;75.73;101313.06;5069740;28;20068;-41
2021/04/15 03:02:09;;;;;;;5.28;0.57;;;4.10;99.90;;;3.64;75.53;101307.75;5070023;28;20032;-42
2021/04/15 03:04:40;;;;;;;1.20;0.60;;;4.20;99.90;;;3.67;74.86;101315.31;5087498;28;20028;-40
2021/04/15 03:07:07;;;;;;;5.30;0.95;;;4.20;99.90;;;3.72;74.53;101307.34;5086940;28;20043;-46
2021/04/15 03:09:37;;;;;;;1.65;0.60;;;4.20;99.90;;;3.79;74.13;101312.06;5087540;28;20067;-40
2021/04/15 03:12:23;;;;;;;1.30;0.60;;;4.30;99.90;;;3.82;74.66;101314.50;5069550;28;20032;-41
2021/04/15 03:15:00;;;;;;;2.45;0.68;;;4.30;99.90;;;3.81;75.78;101317.16;5071602;28;20467;-46
2021/04/15 03:17:30;;;;;;;3.78;1.45;;;4.40;99.90;;;3.77;75.98;101310.53;5069427;28;20034;-46
2021/04/15 03:20:01;;;;;;;3.85;0.95;;;4.40;99.90;;;3.96;73.55;101308.63;5069744;28;20036;-46
2021/04/15 03:23:00;;;;;;;5.47;0.88;;;4.40;99.90;;;4.11;71.50;101305.22;5087168;28;20036;-43
2021/04/15 03:25:27;;;;;;;5.00;0.50;;;4.60;99.90;;;4.27;70.43;101303.44;5087437;28;20028;-46
2021/04/15 03:28:31;;;;;;;2.03;0.50;;;4.70;99.90;;;4.34;69.57;101304.78;5068570;28;20036;-46
2021/04/15 03:31:04;;;;;;;3.00;0.47;;;4.90;99.90;;;4.34;70.03;101296.22;5070157;28;20488;-50
2021/04/15 03:33:51;;;;;;;5.53;0.60;;;4.90;99.90;;;4.29;70.48;101296.47;5087443;28;20118;-42
2021/04/15 03:36:34;;;;;;;2.60;0.30;;;4.90;99.90;;;4.25;70.39;101302.69;5069242;28;20532;-43
2021/04/15 03:39:12;;;;;;;2.95;0.57;;;4.80;99.90;;;4.24;70.07;101306.22;5086514;28;20032;-46
2021/04/15 03:41:48;;;;;;;3.33;0.60;;;4.80;99.90;;;4.19;69.93;101303.06;5069484;28;20199;-45
2021/04/15 03:44:29;;;;;;;1.30;0.40;;;4.80;99.90;;;4.24;69.46;101306.22;5069278;28;20036;-50
2021/04/15 03:47:20;;;;;;;2.47;0.30;;;4.80;99.90;;;4.25;68.85;101302.69;5087051;28;20036;-44
2021/04/15 03:50:20;;;;;;;2.95;0.40;;;4.80;99.90;;;4.21;67.78;101306.41;5071966;28;20028;-44
2021/04/15 03:53:11;;;;;;;2.83;0.40;;;4.70;99.90;;;4.20;68.29;101301.31;5074621;28;20036;-45
2021/04/15 03:55:45;;;;;;;1.15;0.47;;;4.70;99.90;;;4.15;68.91;101296.41;5072511;28;20040;-44
2021/04/15 03:58:49;;;;;;;1.75;0.50;;;4.70;99.90;;;4.07;69.33;101300.31;5073106;28;20173;-47
2021/04/15 04:01:26;;;;;;;2.50;0.50;;;4.70;99.90;;;3.96;70.42;101300.88;5073983;28;20093;-40
2021/04/15 04:04:39;;;;;;;1.65;0.50;;;4.60;99.90;;;3.89;71.54;101299.53;5073909;28;20040;-47
2021/04/15 04:07:48;;;;;;;1.30;0.40;;;4.40;99.90;;;3.85;71.50;101298.88;5083120;28;20449;-42
2021/04/15 04:10:24;;;;;;;1.60;0.43;;;4.40;99.90;;;3.79;72.49;101298.34;5089974;28;20495;-45
2021/04/15 04:13:32;;;;;;;2.75;0.60;;;4.40;99.90;;;3.72;73.02;101299.63;5073035;28;20118;-46
2021/04/15 04:16:23;;;;;;;1.38;0.50;;;4.30;99.90;;;3.78;72.44;101301.88;5090749;28;20040;-45
2021/04/15 04:19:26;;;;;;;2.10;0.50;;;4.30;99.90;;;3.84;70.34;101297.19;5072431;28;20032;-43
2021/04/15 04:22:32;;;;;;;6.10;0.50;;;4.30;99.90;;;3.91;69.80;101302.88;5085632;28;20402;-49
2021/04/15 04:25:20;;;;;;;1.00;0.50;;;4.40;99.90;;;3.97;68.23;101308.53;5090764;28;20459;-47
2021/04/15 04:28:00;;;;;;;4.20;0.50;;;4.50;99.90;;;4.03;68.02;101307.38;5090273;28;20043;-45
2021/04/15 04:30:53;;;;;;;1.58;0.40;;;4.60;99.90;;;4.06;68.24;101309.78;5090232;28;20039;-42
2021/04/15 04:33:27;;;;;;;2.50;0.47;;;4.60;99.90;;;4.11;67.68;101310.38;5071929;28;20042;-44
2021/04/15 04:35:57;;;;;;;1.33;0.40;;;4.70;99.90;;;4.20;67.73;101317.63;5072462;28;20033;-45
2021/04/15 04:38:23;;;;;;;4.47;0.40;;;4.80;99.90;;;4.19;67.75;101322.88;5090257;28;20438;-40
2021/04/15 04:41:00;;;;;;;2.10;0.40;;;4.80;99.90;;;4.17;68.36;101320.38;5090140;28;20020;-45
2021/04/15 04:43:39;;;;;;;1.80;0.43;;;4.80;99.90;;;4.16;68.18;101318.72;5071703;28;20047;-48
2021/04/15 04:46:23;;;;;;;2.38;0.47;;;4.80;99.90;;;4.16;68.07;101323.03;5090013;28;20381;-49
2021/04/15 04:48:59;;;;;;;2.85;1.00;;;4.80;99.90;;;4.18;68.27;101322.03;5089907;28;20138;-45
2021/04/15 04:52:05;;;;;;;1.70;0.50;;;4.80;99.90;;;4.33;67.85;101331.50;5072184;28;20034;-46
2021/04/15 04:54:32;;;;;;;1.02;0.40;;;4.90;99.90;;;4.56;67.47;101326.84;5089298;28;20131;-43
2021/04/15 04:57:25;;;;;;;1.75;0.50;;;5.20;99.90;;;4.92;66.11;101331.66;5089307;28;20044;-46
2021/04/15 05:00:02;;;;;;;1.00;0.30;;;5.60;99.90;;;5.16;65.25;101334.63;5088970;28;20051;-46
2021/04/15 05:02:28;;;;;;;1.25;0.40;;;5.90;99.90;;;5.45;64.77;101338.06;5055619;28;20418;-45
2021/04/15 05:05:06;;;;;;;1.80;0.73;;;6.00;99.90;;;5.54;63.79;101337.53;5089557;28;20074;-47
2021/04/15 05:07:36;;;;;;;3.97;0.52;;;6.30;99.90;;;5.97;63.40;101335.81;5072032;28;20110;-45
2021/04/15 05:10:04;;;;;;;3.10;0.50;;;6.90;99.90;;;6.45;62.44;101344.03;5071819;28;20024;-42
2021/04/15 05:12:35;;;;;;;2.65;0.50;;;7.70;95.80;;;6.97;59.82;101344.94;5088687;28;20036;-45
2021/04/15 05:15:04;;;;;;;1.92;0.50;;;8.60;91.10;;;7.41;59.04;101346.34;5071184;28;20028;-47
2021/04/15 05:17:36;;;;;;;2.72;0.60;;;8.90;87.40;;;7.89;57.87;101344.78;5071313;28;20039;-42
2021/04/15 05:20:07;;;;;;;1.42;0.50;;;9.70;83.60;;;8.71;55.85;101356.28;5071378;28;20111;-42
2021/04/15 05:22:46;;;;;;;3.25;0.70;;;10.60;77.20;;;8.76;54.18;101345.56;5088699;28;20028;-47
2021/04/15 05:25:43;;;;;;;2.33;0.70;;;10.90;72.00;;;8.43;53.26;101349.66;5071432;28;20111;-45
2021/04/15 05:28:14;;;;;;;2.83;0.65;;;10.50;74.00;;;9.24;53.60;101347.16;5089445;28;20032;-45
2021/04/15 05:30:50;;;;;;;3.35;0.85;;;11.50;69.00;;;8.84;54.45;101341.47;5089051;28;20040;-45
2021/04/15 05:33:26;;;;;;;2.38;0.50;;;10.90;68.30;;;8.49;55.03;101354.41;5089164;28;20342;-43
2021/04/15 05:36:23;;;;;;;3.65;0.60;;;10.30;72.70;;;8.71;52.48;101348.50;5070136;28;20081;-42
2021/04/15 05:38:53;;;;;;;4.93;1.08;;;10.40;69.60;;;9.57;53.30;101342.94;5081439;28;20055;-46
2021/04/15 05:41:41;;;;;;;3.15;0.90;;;11.20;71.00;;;10.40;50.66;101342.59;5088828;28;20032;-44
2021/04/15 05:44:21;;;;;;;1.20;0.40;;;12.60;64.50;;;10.62;47.36;101347.72;5071546;28;20051;-46
2021/04/15 05:46:51;;;;;;;4.97;0.57;;;13.20;60.40;;;11.34;49.44;101347.88;5088188;28;20028;-45
2021/04/15 05:49:32;;;;;;;2.25;0.60;;;14.00;60.90;;;12.36;44.98;101351.31;5088604;28;20066;-47
2021/04/15 05:52:04;;;;;;;4.00;0.75;;;15.90;53.50;;;12.79;44.83;101346.53;5070594;28;20036;-46
2021/04/15 05:54:34;;;;;;;2.92;0.40;;;16.10;53.10;;;12.65;45.39;101349.56;5088400;28;20032;-45
2021/04/15 05:57:11;;;;;;;3.35;0.32;;;16.20;52.00;;;12.57;44.91;101342.41;5066317;28;20044;-45
2021/04/15 05:59:49;;;;;;;1.77;0.52;;;16.40;51.60;;;11.93;44.08;101347.19;5067216;28;20051;-44
2021/04/15 06:03:05;;;;;;;3.90;0.40;;;15.60;52.10;;;10.22;47.43;101344.84;5068706;28;20430;-45
2021/04/15 06:06:06;;;;;;;3.03;0.50;;;13.10;55.60;;;8.80;50.51;101347.81;5066950;28;20040;-46
2021/04/15 06:08:38;;;;;;;1.20;0.40;;;11.10;60.70;;;8.25;54.17;101351.75;5066520;28;20318;-44
2021/04/15 06:11:48;;;;;;;3.85;0.38;;;9.80;65.40;;;8.10;52.64;101332.06;5065967;28;20733;-44
2021/04/15 06:14:37;;;;;;;1.58;0.60;;;9.70;65.80;;;8.08;53.99;101344.31;5046828;28;20056;-44
2021/04/15 06:17:05;;;;;;;1.75;0.50;;;9.40;68.30;;;8.30;53.31;101338.44;5046479;28;20036;-45
2021/04/15 06:19:33;;;;;;;0.95;0.30;;;9.70;67.20;;;8.35;52.97;101335.56;5048055;28;20587;-47
2021/04/15 06:22:15;;;;;;;2.00;0.45;;;9.80;66.50;;;8.81;51.39;101333.91;5049165;28;20138;-48
2021/04/15 06:24:44;;;;;;;4.20;0.50;;;10.60;64.00;;;9.99;49.18;101334.41;5062707;28;20041;-44
2021/04/15 06:27:11;;;;;;;1.85;0.45;;;12.40;60.30;;;11.15;47.14;101332.06;5047992;28;20081;-43
2021/04/15 06:30:00;;;;;;;6.75;0.65;;;14.40;55.90;;;12.29;43.63;101328.31;5046359;28;20036;-42
2021/04/15 06:32:42;;;;;;;1.38;0.30;;;16.10;51.30;;;12.50;43.57;101327.41;5046647;28;20044;-43
2021/04/15 06:35:24;;;;;;;1.70;0.60;;;16.80;48.60;;;13.44;39.75;101321.41;5066814;28;20156;-46
2021/04/15 06:38:19;;;;;;;3.33;0.63;;;17.70;46.30;;;13.72;38.50;101318.81;5066269;28;20394;-45
2021/04/15 06:40:48;;;;;;;1.48;0.55;;;18.10;44.60;;;14.19;37.97;101312.50;5066464;28;20033;-49
2021/04/15 06:43:43;;;;;;;1.98;0.65;;;18.90;42.60;;;14.32;36.08;101317.41;5067277;28;20048;-46
2021/04/15 06:46:17;;;;;;;0.85;0.30;;;19.40;40.90;;;14.73;36.38;101321.25;5047568;28;20150;-49
2021/04/15 06:49:13;;;;;;;0.80;0.40;;;19.80;40.30;;;14.54;33.56;101314.38;5047686;28;20132;-45
2021/04/15 06:52:32;;;;;;;3.17;0.30;;;19.30;39.10;;;13.87;34.42;101320.84;5047916;28;20104;-48
2021/04/15 06:55:32;;;;;;;2.08;0.22;;;17.10;41.80;;;13.15;35.41;101316.22;5040089;28;20052;-47
2021/04/15 06:58:44;;;;;;;1.73;0.65;;;15.20;46.00;;;12.00;36.06;101316.97;5067434;28;20044;-47
2021/04/15 07:02:20;;;;;;;1.40;0.50;;;13.60;48.80;;;11.10;38.04;101310.75;5066004;28;20028;-44
2021/04/15 07:05:03;;;;;;;2.40;1.20;;;12.30;49.70;;;11.20;38.82;101312.47;5046747;28;20101;-47
2021/04/15 07:07:38;;;;;;;1.00;0.40;;;12.10;50.70;;;11.23;40.37;101306.19;5067709;28;20233;-44
2021/04/15 07:10:24;;;;;;;3.90;0.50;;;11.90;51.70;;;11.38;39.73;101312.69;5067399;28;20485;-48
2021/04/15 07:12:58;;;;;;;1.30;0.50;;;12.00;52.20;;;11.87;40.16;101312.00;5067532;28;20084;-47
2021/04/15 07:15:51;;;;;;;3.50;0.70;;;12.40;52.90;;;11.78;39.08;101311.97;5067018;28;20040;-52
2021/04/15 07:19:19;;;;;;;2.63;0.55;;;12.50;52.30;;;11.77;39.53;101315.56;5067512;28;20033;-47
2021/04/15 07:22:31;;;;;;;1.60;0.50;;;12.50;52.50;;;12.07;39.32;101314.66;5066232;28;20480;-50
2021/04/15 07:25:19;;;;;;;2.22;0.60;;;12.60;53.90;;;12.34;38.49;101319.25;5069460;28;20055;-50
2021/04/15 07:28:17;;;;;;;1.08;0.40;;;12.90;51.80;;;12.40;36.67;101314.31;5069479;28;20043;-47
2021/04/15 07:31:16;;;;;;;0.90;0.32;;;13.20;51.30;;;12.67;38.61;101318.88;5071051;28;20127;-47
2021/04/15 07:33:51;;;;;;;3.10;0.40;;;13.30;51.50;;;12.77;38.49;101322.31;5071302;28;20393;-48
2021/04/15 07:36:49;;;;;;;1.57;0.37;;;13.50;51.10;;;12.46;37.07;101320.78;5075988;22;20047;-45
2021/04/15 07:39:40;;;;;;;0.90;0.32;;;13.30;49.40;;;12.00;35.54;101319.59;5048095;28;20306;-48
2021/04/15 07:42:48;;;;;;;1.70;0.40;;;12.90;49.00;;;11.61;35.53;101327.25;5048226;28;20087;-49
2021/04/15 07:46:03;;;;;;;1.60;0.52;;;12.50;48.80;;;11.21;36.57;101323.75;5051138;28;20149;-45
2021/04/15 07:49:00;;;;;;;2.95;0.43;;;12.00;49.60;;;10.87;36.82;101331.72;5012951;28;20053;-44
2021/04/15 07:52:07;;;;;;;2.30;0.30;;;11.60;48.50;;;10.85;36.88;101331.06;5031215;28;20045;-46
2021/04/15 07:55:13;;;;;;;1.75;0.40;;;11.50;50.00;;;11.63;37.89;101325.34;5040531;28;20400;-44
2021/04/15 07:58:18;;;;;;;2.08;0.40;;;11.90;51.40;;;12.24;34.82;101329.72;5050033;28;20084;-47
2021/04/15 08:01:36;;;;;;;1.75;0.40;;;12.50;48.60;;;12.80;35.54;101327.25;5050165;28;20080;-48
2021/04/15 08:04:25;;;;;;;1.45;0.32;;;12.90;50.00;;;14.19;34.50;101323.00;5052912;28;20112;-45
2021/04/15 08:07:42;;;;;;;1.50;0.60;;;14.10;49.80;;;14.02;33.21;101318.56;5032087;28;20113;-48
2021/04/15 08:10:38;;;;;;;2.93;0.30;;;14.60;48.10;;;13.46;34.68;101318.66;5036092;28;20184;-46
2021/04/15 08:13:18;;;;;;;0.65;0.25;;;14.20;48.20;;;13.46;35.03;101319.47;5054370;28;20064;-46
2021/04/15 08:16:11;;;;;;;2.30;0.30;;;14.10;48.40;;;12.92;33.99;101325.34;5050651;28;20120;-47
2021/04/15 08:19:09;;;;;;;2.42;0.38;;;13.80;46.70;;;13.18;35.49;101320.38;5017444;28;20084;-47
2021/04/15 08:21:47;;;;;;;1.58;0.40;;;13.70;48.90;;;13.48;35.00;101325.41;5049826;28;20044;-53
2021/04/15 08:24:31;;;;;;;3.22;0.60;;;14.10;49.30;;;13.29;34.40;101328.06;5031867;28;20045;-54
2021/04/15 08:28:04;;;;;;;1.80;0.60;;;13.90;48.70;;;13.43;36.43;101325.00;5045614;28;20106;-52
2021/04/15 08:30:51;;;;;;;0.98;0.40;;;13.90;48.10;;;13.65;34.54;101328.25;5051381;28;20137;-47
2021/04/15 08:33:53;;;;;;;1.48;0.40;;;14.20;48.60;;;13.88;35.61;101317.25;5035775;28;20053;-50
2021/04/15 08:36:45;;;;;;;1.92;0.50;;;14.30;50.00;;;14.53;34.81;101314.53;5032889;28;20040;-57
2021/04/15 08:39:35;;;;;;;2.35;0.40;;;14.90;48.70;;;14.48;33.15;101314.97;5050343;28;20657;-52
2021/04/15 08:42:46;;;;;;;1.83;0.50;;;15.20;47.50;;;14.70;33.23;101310.25;5049961;28;20045;-56
2021/04/15 08:45:31;;;;;;;1.48;0.60;;;15.30;47.20;;;14.77;34.09;101319.16;5049757;28;20056;-48
2021/04/15 08:48:12;;;;;;;3.42;0.93;;;15.40;47.60;;;14.96;33.28;101310.31;5049609;28;20033;-52
2021/04/15 08:51:01;;;;;;;2.80;0.60;;;15.60;46.30;;;14.99;32.98;101310.81;5037195;28;20353;-55
2021/04/15 08:53:44;;;;;;;2.25;0.50;;;15.50;46.70;;;15.01;34.12;101310.69;5063134;28;20040;-53
2021/04/15 08:56:13;;;;;;;1.05;0.40;;;15.70;47.20;;;14.84;33.91;101307.91;5055996;28;20049;-52
2021/04/15 08:58:47;;;;;;;1.45;0.40;;;15.60;45.60;;;14.48;32.60;101308.91;5049585;28;20062;-50
2021/04/15 09:01:43;;;;;;;0.73;0.30;;;15.30;45.90;;;13.90;30.32;101309.25;5049342;28;20576;-54
2021/04/15 09:04:53;;;;;;;1.25;0.38;;;14.90;43.10;;;13.48;31.44;101309.69;5049364;28;20131;-49
2021/04/15 09:07:43;;;;;;;1.60;0.60;;;14.40;44.30;;;13.41;32.24;101308.59;5027991;28;20430;-50
2021/04/15 09:10:25;;;;;;;2.20;0.60;;;14.10;45.10;;;14.35;31.53;101311.03;5029447;28;20060;-55
2021/04/15 09:13:39;;;;;;;0.90;0.40;;;14.70;45.80;;;14.35;30.25;101311.03;5029388;28;20044;-49
2021/04/15 09:16:46;;;;;;;1.70;0.40;;;14.90;44.40;;;14.64;28.23;101311.69;4990350;28;20157;-50
2021/04/15 09:20:01;;;;;;;2.10;0.63;;;15.30;42.60;;;15.33;29.34;101297.75;5011997;28;20029;-48
2021/04/15 09:23:03;;;;;;;1.55;0.32;;;15.40;44.70;;;15.61;29.06;101293.16;5013085;28;20161;-48
2021/04/15 09:26:02;;;;;;;2.25;0.50;;;16.10;43.20;;;15.34;30.97;101294.16;5029279;28;20120;-52
2021/04/15 09:28:41;;;;;;;0.88;0.30;;;16.00;43.80;;;15.28;31.23;101295.59;5013502;28;20446;-49
2021/04/15 09:31:35;;;;;;;1.13;0.65;;;16.00;45.10;;;14.72;31.54;101293.38;5018311;28;20060;-50
2021/04/15 09:35:01;;;;;;;3.03;0.30;;;15.70;44.70;;;14.22;33.07;101295.66;5049129;28;20076;-48
2021/04/15 09:37:57;;;;;;;2.80;0.47;;;15.10;44.50;;;14.48;32.80;101293.19;5046574;28;20172;-52
2021/04/15 09:41:10;;;;;;;3.47;0.40;;;15.20;46.80;;;14.53;32.60;101296.19;5048929;28;20124;-54
2021/04/15 09:43:42;;;;;;;3.40;0.75;;;15.30;45.80;;;14.60;33.28;101292.81;5028395;28;20796;-50
2021/04/15 09:46:22;;;;;;;0.82;0.40;;;15.30;45.90;;;14.65;32.51;101294.97;5029790;28;20048;-46
2021/04/15 09:49:34;;;;;;;1.63;0.40;;;15.40;45.70;;;14.43;30.26;101287.56;5047489;28;20150;-47
2021/04/15 09:52:27;;;;;;;2.58;0.40;;;15.30;44.90;;;14.08;32.37;101288.34;5047946;28;20036;-47
2021/04/15 09:55:44;;;;;;;23.65;1.45;;;14.90;44.70;;;14.19;33.09;101286.31;5047400;28;20071;-49
2021/04/15 09:58:51;;;;;;;20.08;1.27;;;15.00;46.30;;;14.05;32.16;101284.22;5000137;28;20486;-48
2021/04/15 10:01:29;;;;;;;8.27;0.70;;;14.90;44.00;;;14.22;32.85;101278.16;4973777;28;20209;-48
2021/04/15 10:04:25;;;;;;;8.85;1.30;;;14.90;45.00;;;14.64;30.25;101282.84;4987140;28;20097;-46
2021/04/15 10:07:00;;;;;;;7.00;0.50;;;15.20;43.00;;;15.57;31.08;101274.28;4986420;28;20332;-45
2021/04/15 10:09:55;;;;;;;1.45;0.40;;;15.80;44.40;;;16.02;29.68;101272.31;4999245;28;20053;-53
2021/04/15 10:12:53;;;;;;;2.80;0.38;;;16.40;43.60;;;15.88;28.88;101271.94;4966638;28;20451;-51
2021/04/15 10:15:41;;;;;;;2.03;0.45;;;16.60;42.60;;;15.56;30.37;101272.66;4963762;28;20160;-53
2021/04/15 10:19:01;;;;;;;1.73;0.50;;;16.30;43.00;;;15.50;29.94;101267.16;4985327;28;20074;-52
2021/04/15 10:21:41;;;;;;;3.75;0.40;;;16.30;42.90;;;15.40;29.71;101259.41;4898184;28;20041;-54
2021/04/15 10:24:30;;;;;;;1.60;0.40;;;16.20;43.30;;;15.85;29.42;101260.94;4999135;28;20101;-54
2021/04/15 10:27:39;;;;;;;2.38;0.40;;;16.40;43.40;;;16.32;28.12;101257.75;4978460;28;20096;-54
2021/04/15 10:30:25;;;;;;;3.47;0.50;;;16.70;42.50;;;16.33;29.49;101259.38;4985105;28;20089;-53
2021/04/15 10:33:14;;;;;;;2.17;0.50;;;16.90;42.60;;;16.53;27.95;101250.19;4996827;28;20068;-48
2021/04/15 10:36:28;;;;;;;1.35;0.43;;;17.00;41.40;;;16.88;26.44;101243.78;5039730;28;20530;-48
2021/04/15 10:39:32;;;;;;;2.92;0.30;;;17.40;40.80;;;15.99;26.95;101247.19;5047122;28;20052;-51
2021/04/15 10:42:31;;;;;;;1.10;0.30;;;16.90;40.10;;;14.93;28.34;101240.59;5030630;28;20052;-56
2021/04/15 10:45:24;;;;;;;2.42;0.40;;;16.00;41.10;;;14.59;28.23;101248.38;5040934;28;20045;-50
2021/04/15 10:48:39;;;;;;;1.73;0.50;;;15.50;42.00;;;14.14;27.21;101232.72;5011490;28;20389;-50
2021/04/15 10:51:18;;;;;;;0.75;0.30;;;14.90;38.90;;;14.01;29.72;101238.31;5001040;28;20049;-52
2021/04/15 10:53:44;;;;;;;1.30;0.40;;;14.70;43.00;;;13.85;30.69;101236.31;5043544;28;20172;-53
2021/04/15 10:56:25;;;;;;;1.00;0.30;;;14.60;41.10;;;13.63;29.51;101241.16;5046186;28;20629;-49
2021/04/15 10:59:03;;;;;;;1.23;0.55;;;14.40;41.60;;;13.78;29.63;101240.50;5028289;28;20080;-46
2021/04/15 11:01:42;;;;;;;0.82;0.30;;;14.40;41.90;;;14.24;29.49;101231.66;5047014;28;20060;-47
2021/04/15 11:04:13;;;;;;;1.63;0.30;;;14.70;42.00;;;14.47;28.77;101228.59;5045441;28;20662;-49
2021/04/15 11:06:44;;;;;;;1.30;0.30;;;15.00;41.30;;;14.83;29.00;101226.75;5047568;28;20456;-54
2021/04/15 11:09:28;;;;;;;1.75;0.40;;;15.20;41.50;;;14.99;28.44;101231.28;5041645;28;20041;-49
2021/04/15 11:12:15;;;;;;;1.55;0.38;;;15.60;40.70;;;14.25;28.95;101222.81;5036213;28;20501;-53
2021/04/15 11:14:44;;;;;;;1.92;0.70;;;15.30;41.30;;;14.33;31.05;101223.84;5028889;28;20053;-51
2021/04/15 11:17:49;;;;;;;0.80;0.43;;;15.20;42.60;;;14.46;30.43;101221.72;5034219;28;20133;-50
2021/04/15 11:20:25;;;;;;;0.80;0.40;;;15.10;42.60;;;14.72;30.55;101217.31;5033187;28;20074;-52
2021/04/15 11:23:15;;;;;;;1.23;0.40;;;15.40;43.30;;;14.71;31.11;101210.41;5009932;28;20504;-51
2021/04/15 11:25:48;;;;;;;2.55;0.52;;;15.40;43.50;;;14.73;31.77;101205.03;5045767;28;20560;-49
2021/04/15 11:28:23;;;;;;;1.52;0.40;;;15.40;44.40;;;14.49;30.16;101208.31;5046412;28;20037;-52
2021/04/15 11:31:00;;;;;;;1.13;0.45;;;15.30;42.30;;;14.31;32.31;101207.47;5047338;28;20154;-52
2021/04/15 11:33:53;;;;;;;1.10;0.30;;;14.90;44.20;;;14.62;31.19;101192.19;5045935;28;20033;-54
2021/04/15 11:36:32;;;;;;;0.80;0.28;;;15.10;44.30;;;14.65;30.87;101195.28;5039458;28;20037;-51
2021/04/15 11:39:04;;;;;;;1.27;0.40;;;15.30;43.50;;;14.43;30.19;101194.00;5024765;28;20069;-46